Weaver, Minnesota
Current Conditions -  °F | °C
As of 3:34 PM on Saturday 22 Nov 2014 (Local Time) from KONA Reporting Station
Haze Haze  
Wind Chill:   Ceiling: 700
Heat Index:   Visibility: 5mi
Dew Point:   Wind: 5mph
Humidity: 93%   Direction: 200°SSW
Pressure: 29.73"   Gusts: NA
Location:  44.1503°N, 91.9879°W
Report Text: KONA 222134Z AUTO 20004KT 5SM BR OVC007 03/02 A2973 RMK AO2
Loading
Personal Weather Stations






























Interactive Weather Map New forecast layout! Learn more

10-Day Weather Forecast

Advertisements
Track Severe Weather on mobile